KGCN/GCN METAR and TAF weather

Enter ICAO airport designator
Station Type Date Time Source
KGCN METAR 2019/05/23 18:54 UTC NOAA

KGCN 231854Z 22015G22KT 10SM BKN009 BKN012 OVC025 02/00 A2997 RMK AO2 UPB36E40SNE36 SLP135 P0000 T00220000


Station Type Date Time Source
KGCN Decoded METAR 2019/05/23 18:54 UTC NOAA

GRAND CANYON NATL PARK AIRPORT , AZ, United States (KGCN) 35-57N 112-09W 2016M
May 23, 2019 - 02:54 PM EDT / 2019.05.23 1854 UTC
Wind: from the SW (220 degrees) at 17 MPH (15 KT) gusting to 25 MPH (22 KT):0
Visibility: 10 mile(s):0
Sky conditions: overcast
Precipitation last hour: A trace
Temperature: 36.0 F (2.2 C)
Dew Point: 32.0 F (0.0 C)
Relative Humidity: 85%
Pressure (altimeter): 29.97 in. Hg (1014 hPa)
ob: KGCN 231854Z 22015G22KT 10SM BKN009 BKN012 OVC025 02/00 A2997 RMK AO2 UPB36E40SNE36 SLP135 P0000 T00220000
cycle: 19

Station Type Date Time Source
KGCN TAF 2019/05/23 19:51 UTC NOAA

TAF
AMD KGCN 231849Z 2319/2418 21008KT P6SM -SHSN SCT005 BKN015 OVC080
TEMPO 2319/2322 1/4SM +SN FG OVC004
FM232200 23010G20KT 5SM -SHSN BKN040
FM240200 22003KT P6SM SCT040 BKN200

Example: see airport list